Time;durP1;ratioP1;P1;durP2;ratioP2;P2;SDS_P1;SDS_P2;PMS_P1;PMS_P2;Temp;Humidity;BMP_temperature;BMP_pressure;BME280_temperature;BME280_humidity;BME280_pressure;Samples;Min_cycle;Max_cycle;Signal;HPM_P1;HPM_P2
2023/04/29 00:01:21;;;;;;;;;;;;;;;21.94;43.69;101548.19;7240154;19;156209;-59
2023/04/29 00:03:49;;;;;;;;;;;;;;;21.94;43.87;101555.81;7253087;19;154128;-60
2023/04/29 00:06:16;;;;;;;;;;;;;;;21.93;43.52;101554.97;7226601;19;156742;-62
2023/04/29 00:08:43;;;;;;;;;;;;;;;21.91;43.80;101560.03;7230234;19;154728;-59
2023/04/29 00:11:10;;;;;;;;;;;;;;;21.88;43.62;101546.56;7250736;19;156052;-59
2023/04/29 00:13:39;;;;;;;;;;;;;;;21.88;43.95;101554.16;7258053;19;153429;-59
2023/04/29 00:16:09;;;;;;;;;;;;;;;21.84;43.77;101553.94;7245242;19;156664;-59
2023/04/29 00:18:36;;;;;;;;;;;;;;;21.82;44.18;101555.38;7251339;19;153821;-58
2023/04/29 00:21:04;;;;;;;;;;;;;;;21.88;43.73;101548.53;7250741;19;154663;-59
2023/04/29 00:23:32;;;;;;;;;;;;;;;21.86;44.04;101550.81;7251877;19;154030;-60
2023/04/29 00:25:59;;;;;;;;;;;;;;;21.82;43.76;101555.38;7248177;19;154811;-59
2023/04/29 00:28:26;;;;;;;;;;;;;;;21.79;43.95;101555.97;7228988;19;153122;-59
2023/04/29 00:30:53;;;;;;;;;;;;;;;21.77;44.04;101561.91;7249751;19;153284;-59
2023/04/29 00:33:20;;;;;;;;;;;;;;;21.72;43.99;101560.00;7259702;19;153383;-60
2023/04/29 00:35:47;;;;;;;;;;;;;;;21.71;44.24;101563.13;7247024;19;153698;-59
2023/04/29 00:38:14;;;;;;;;;;;;;;;21.69;44.10;101563.41;7248522;19;153350;-60
2023/04/29 00:40:42;;;;;;;;;;;;;;;21.67;44.21;101556.41;7254757;19;154132;-59
2023/04/29 00:43:09;;;;;;;;;;;;;;;21.66;43.78;101563.19;7250516;19;153466;-60
2023/04/29 00:45:36;;;;;;;;;;;;;;;21.62;43.80;101562.94;7246763;19;153879;-60
2023/04/29 00:48:03;;;;;;;;;;;;;;;21.59;44.07;101568.31;7250384;19;151781;-58
2023/04/29 00:50:31;;;;;;;;;;;;;;;21.60;43.81;101578.44;7252810;19;155525;-58
2023/04/29 00:52:58;;;;;;;;;;;;;;;21.56;44.17;101572.59;7252794;19;154642;-61
2023/04/29 00:55:26;;;;;;;;;;;;;;;21.54;44.21;101566.41;7256520;19;154195;-59
2023/04/29 00:57:53;;;;;;;;;;;;;;;21.53;43.85;101573.16;7253946;19;153792;-59
2023/04/29 01:00:25;;;;;;;;;;;;;;;21.53;44.15;101567.53;7249850;19;154744;-60
2023/04/29 01:02:53;;;;;;;;;;;;;;;21.51;44.15;101580.25;7251367;19;153938;-60
2023/04/29 01:05:20;;;;;;;;;;;;;;;21.51;43.75;101577.44;7254482;19;152154;-60
2023/04/29 01:07:50;;;;;;;;;;;;;;;21.46;43.77;101578.34;7255109;19;153250;-61
2023/04/29 01:10:21;;;;;;;;;;;;;;;21.47;43.77;101570.75;7250736;19;153760;-61
2023/04/29 01:12:58;;;;;;;;;;;;;;;21.44;44.07;101566.53;7251692;19;152735;-61
2023/04/29 01:15:29;;;;;;;;;;;;;;;21.44;44.09;101574.16;7250361;19;152734;-60
2023/04/29 01:18:05;;;;;;;;;;;;;;;21.41;44.00;101574.75;7258912;19;152775;-60
2023/04/29 01:20:33;;;;;;;;;;;;;;;21.40;44.11;101575.88;7251414;19;154927;-61
2023/04/29 01:23:00;;;;;;;;;;;;;;;21.40;44.39;101571.09;7252113;19;154476;-60
2023/04/29 01:25:27;;;;;;;;;;;;;;;21.39;44.46;101569.44;7252023;19;152559;-60
2023/04/29 01:28:01;;;;;;;;;;;;;;;21.35;44.35;101573.94;7250993;19;154506;-60
2023/04/29 01:30:31;;;;;;;;;;;;;;;21.34;44.26;101572.31;7246609;19;153839;-60
2023/04/29 01:32:58;;;;;;;;;;;;;;;21.34;44.57;101580.75;7247418;19;152389;-60
2023/04/29 01:35:28;;;;;;;;;;;;;;;21.32;44.43;101582.16;7252257;19;152963;-60
2023/04/29 01:37:57;;;;;;;;;;;;;;;21.30;44.81;101585.28;7252120;19;154001;-59
2023/04/29 01:40:29;;;;;;;;;;;;;;;21.26;44.93;101582.19;7261387;19;153655;-59
2023/04/29 01:43:10;;;;;;;;;;;;;;;21.26;45.01;101587.81;7253519;19;156401;-59
2023/04/29 01:45:40;;;;;;;;;;;;;;;21.23;45.04;101588.44;7247683;19;153081;-60
2023/04/29 01:48:08;;;;;;;;;;;;;;;21.22;45.12;101585.91;7253013;19;154790;-59
2023/04/29 01:50:35;;;;;;;;;;;;;;;21.20;45.20;101582.56;7251750;19;155405;-58
2023/04/29 01:53:02;;;;;;;;;;;;;;;21.18;44.89;101593.25;7252934;19;154224;-58
2023/04/29 01:55:29;;;;;;;;;;;;;;;21.18;45.47;101582.03;7251401;19;153486;-59
2023/04/29 01:57:56;;;;;;;;;;;;;;;21.16;45.15;101585.16;7252403;19;154743;-59
2023/04/29 02:00:23;;;;;;;;;;;;;;;21.14;45.47;101586.56;7247703;19;153501;-58
2023/04/29 02:02:50;;;;;;;;;;;;;;;21.13;45.46;101579.25;7259090;19;155520;-59
2023/04/29 02:05:17;;;;;;;;;;;;;;;21.12;45.33;101589.63;7253055;19;153105;-59
2023/04/29 02:07:44;;;;;;;;;;;;;;;21.11;45.40;101584.31;7251805;19;153657;-60
2023/04/29 02:10:12;;;;;;;;;;;;;;;21.11;45.71;101592.75;7249282;19;155995;-58
2023/04/29 02:12:39;;;;;;;;;;;;;;;21.08;45.58;101594.16;7251601;19;153476;-60
2023/04/29 02:15:07;;;;;;;;;;;;;;;21.07;45.71;101598.13;7248142;19;155032;-60
2023/04/29 02:17:34;;;;;;;;;;;;;;;21.06;45.66;101601.25;7252187;19;153418;-60
2023/04/29 02:20:01;;;;;;;;;;;;;;;21.05;46.09;101599.56;7246517;19;153281;-59
2023/04/29 02:22:28;;;;;;;;;;;;;;;21.03;45.96;101596.22;7253549;19;155374;-60
2023/04/29 02:24:55;;;;;;;;;;;;;;;21.01;45.86;101601.28;7257172;19;153560;-59
2023/04/29 02:27:22;;;;;;;;;;;;;;;21.02;45.91;101602.97;7248495;19;155066;-59
2023/04/29 02:29:50;;;;;;;;;;;;;;;21.00;46.16;101605.22;7246597;19;154125;-59
2023/04/29 02:32:18;;;;;;;;;;;;;;;20.98;46.21;101604.69;7248833;19;154889;-61
2023/04/29 02:34:46;;;;;;;;;;;;;;;20.98;46.48;101613.13;7247995;19;154376;-59
2023/04/29 02:37:13;;;;;;;;;;;;;;;20.99;46.16;101603.53;7247651;19;152830;-60
2023/04/29 02:39:40;;;;;;;;;;;;;;;20.97;46.37;101603.84;7249708;19;153892;-60
2023/04/29 02:42:07;;;;;;;;;;;;;;;20.94;46.57;101601.63;7251500;19;154647;-60
2023/04/29 02:44:34;;;;;;;;;;;;;;;20.94;46.63;101606.41;7258674;19;154045;-60
2023/04/29 02:47:01;;;;;;;;;;;;;;;20.95;46.45;101603.28;7253879;19;153557;-59
2023/04/29 02:49:28;;;;;;;;;;;;;;;20.92;46.65;101606.69;7253088;19;153213;-60
2023/04/29 02:51:55;;;;;;;;;;;;;;;20.93;46.60;101614.00;7255770;19;154793;-59
2023/04/29 02:54:22;;;;;;;;;;;;;;;20.91;46.96;101607.00;7256402;19;154148;-59
2023/04/29 02:56:49;;;;;;;;;;;;;;;20.90;47.09;101608.97;7254686;19;153779;-59
2023/04/29 02:59:16;;;;;;;;;;;;;;;20.86;47.01;101611.53;7251572;19;153985;-59
2023/04/29 03:01:43;;;;;;;;;;;;;;;20.88;46.89;101618.81;7252851;19;152988;-59
2023/04/29 03:04:10;;;;;;;;;;;;;;;20.88;46.86;101627.25;7254803;19;153416;-59
2023/04/29 03:06:38;;;;;;;;;;;;;;;20.86;47.21;101628.38;7265351;19;153577;-60
2023/04/29 03:09:05;;;;;;;;;;;;;;;20.85;47.05;101626.69;7256608;19;154652;-60
2023/04/29 03:11:32;;;;;;;;;;;;;;;20.83;47.26;101634.59;7255922;19;154670;-60
2023/04/29 03:14:00;;;;;;;;;;;;;;;20.81;47.12;101627.56;7259022;19;154404;-60
2023/04/29 03:16:28;;;;;;;;;;;;;;;20.81;47.05;101630.38;7247649;19;153443;-60
2023/04/29 03:18:55;;;;;;;;;;;;;;;20.81;47.26;101627.56;7255523;19;152128;-59
2023/04/29 03:21:22;;;;;;;;;;;;;;;20.82;47.39;101629.25;7253231;19;155561;-59
2023/04/29 03:23:49;;;;;;;;;;;;;;;20.80;47.28;101634.34;7255195;19;153080;-59
2023/04/29 03:26:16;;;;;;;;;;;;;;;20.79;47.28;101624.25;7256609;19;154304;-59
2023/04/29 03:28:43;;;;;;;;;;;;;;;20.79;47.28;101638.28;7265533;19;153974;-59
2023/04/29 03:31:15;;;;;;;;;;;;;;;20.78;47.32;101626.22;7250873;19;153216;-59
2023/04/29 03:33:42;;;;;;;;;;;;;;;20.77;47.22;101632.94;7256768;19;153484;-59
2023/04/29 03:36:09;;;;;;;;;;;;;;;20.76;47.51;101631.25;7253193;19;155322;-60
2023/04/29 03:38:36;;;;;;;;;;;;;;;20.75;47.60;101637.19;7255701;19;153115;-58
2023/04/29 03:41:04;;;;;;;;;;;;;;;20.74;47.83;101639.16;7253112;19;153717;-60
2023/04/29 03:43:31;;;;;;;;;;;;;;;20.74;47.43;101635.50;7250995;19;154446;-59
2023/04/29 03:45:58;;;;;;;;;;;;;;;20.72;47.92;101635.78;7253744;19;154662;-60
2023/04/29 03:48:25;;;;;;;;;;;;;;;20.71;47.67;101634.16;7253617;19;153426;-59
2023/04/29 03:50:52;;;;;;;;;;;;;;;20.71;48.12;101638.91;7261077;19;153396;-59
2023/04/29 03:53:20;;;;;;;;;;;;;;;20.73;47.98;101631.84;7254944;19;155394;-59
2023/04/29 03:55:47;;;;;;;;;;;;;;;20.71;48.18;101638.91;7247444;19;154155;-59
2023/04/29 03:58:14;;;;;;;;;;;;;;;20.71;47.91;101636.94;7253292;19;154881;-59
2023/04/29 04:00:41;;;;;;;;;;;;;;;20.70;48.13;101642.84;7251026;19;153452;-59
2023/04/29 04:03:09;;;;;;;;;;;;;;;20.71;48.23;101633.31;7251782;19;153568;-59
2023/04/29 04:05:36;;;;;;;;;;;;;;;20.69;47.87;101630.78;7254620;19;154281;-59
2023/04/29 04:08:03;;;;;;;;;;;;;;;20.68;48.10;101640.31;7255100;19;153554;-59
2023/04/29 04:10:30;;;;;;;;;;;;;;;20.67;47.79;101635.84;7248759;19;154688;-59
2023/04/29 04:12:59;;;;;;;;;;;;;;;20.66;47.90;101637.00;7260664;19;154470;-59
2023/04/29 04:15:26;;;;;;;;;;;;;;;20.67;47.89;101641.44;7247636;19;152998;-59
2023/04/29 04:17:53;;;;;;;;;;;;;;;20.66;47.91;101641.75;7252820;19;153448;-59
2023/04/29 04:20:20;;;;;;;;;;;;;;;20.63;48.04;101645.97;7255221;19;153380;-59
2023/04/29 04:22:47;;;;;;;;;;;;;;;20.65;48.27;101651.31;7255238;19;154405;-59
2023/04/29 04:25:14;;;;;;;;;;;;;;;20.60;47.92;101654.16;7251673;19;153257;-59
2023/04/29 04:27:41;;;;;;;;;;;;;;;20.60;48.01;101652.19;7255736;19;153014;-59
2023/04/29 04:30:09;;;;;;;;;;;;;;;20.60;47.85;101649.38;7251212;19;153879;-60
2023/04/29 04:32:36;;;;;;;;;;;;;;;20.60;48.11;101662.56;7261878;19;154553;-59
2023/04/29 04:35:03;;;;;;;;;;;;;;;20.60;47.95;101663.41;7251645;19;153549;-59
2023/04/29 04:37:30;;;;;;;;;;;;;;;20.58;48.16;101667.66;7250691;19;153893;-59
2023/04/29 04:39:57;;;;;;;;;;;;;;;20.57;48.11;101668.78;7249799;19;153492;-60
2023/04/29 04:42:24;;;;;;;;;;;;;;;20.57;48.23;101680.00;7252744;19;153372;-60
2023/04/29 04:44:52;;;;;;;;;;;;;;;20.57;47.97;101678.03;7251828;19;153473;-59
2023/04/29 04:47:19;;;;;;;;;;;;;;;20.55;47.94;101688.72;7254558;19;153687;-59
2023/04/29 04:49:46;;;;;;;;;;;;;;;20.54;48.06;101689.00;7251668;19;154688;-60
2023/04/29 04:52:13;;;;;;;;;;;;;;;20.54;48.22;101692.66;7251695;19;153122;-60
2023/04/29 04:54:40;;;;;;;;;;;;;;;20.54;48.27;101700.22;7260067;19;154245;-59
2023/04/29 04:57:07;;;;;;;;;;;;;;;20.53;48.30;101707.84;7251916;19;152422;-58
2023/04/29 04:59:34;;;;;;;;;;;;;;;20.54;48.37;101712.28;7250969;19;155518;-58
2023/04/29 05:02:01;;;;;;;;;;;;;;;20.55;48.07;101710.34;7248525;19;153216;-58
2023/04/29 05:04:28;;;;;;;;;;;;;;;20.54;47.95;101717.06;7255502;19;155831;-59
2023/04/29 05:06:55;;;;;;;;;;;;;;;20.51;48.18;101717.66;7251903;19;153161;-59
2023/04/29 05:09:22;;;;;;;;;;;;;;;20.51;48.35;101715.69;7251537;19;154525;-58
2023/04/29 05:11:50;;;;;;;;;;;;;;;20.47;48.56;101710.94;7252327;19;153086;-58
2023/04/29 05:14:19;;;;;;;;;;;;;;;20.49;48.38;101720.75;7250686;19;153676;-58
2023/04/29 05:16:46;;;;;;;;;;;;;;;20.48;48.16;101718.25;7259028;19;155460;-58
2023/04/29 05:19:13;;;;;;;;;;;;;;;20.48;48.25;101726.66;7252321;19;154163;-59
2023/04/29 05:21:40;;;;;;;;;;;;;;;20.50;48.48;101735.63;7248661;19;154844;-59
2023/04/29 05:24:08;;;;;;;;;;;;;;;20.48;48.51;101730.31;7253780;19;153624;-59
2023/04/29 05:26:35;;;;;;;;;;;;;;;20.49;48.54;101739.59;7251413;19;153829;-59
2023/04/29 05:29:02;;;;;;;;;;;;;;;20.48;48.38;101737.91;7251638;19;154093;-58
2023/04/29 05:31:30;;;;;;;;;;;;;;;20.46;48.11;101740.13;7249235;19;153659;-58
2023/04/29 05:33:57;;;;;;;;;;;;;;;20.45;48.11;101735.66;7250085;19;155118;-60
2023/04/29 05:36:24;;;;;;;;;;;;;;;20.45;48.24;101746.88;7249807;19;156626;-57
2023/04/29 05:38:51;;;;;;;;;;;;;;;20.43;48.55;101744.38;7259803;19;153042;-59
2023/04/29 05:41:18;;;;;;;;;;;;;;;20.40;48.50;101745.78;7250498;19;155122;-59
2023/04/29 05:43:45;;;;;;;;;;;;;;;20.38;48.24;101736.81;7253511;19;153703;-59
2023/04/29 05:46:12;;;;;;;;;;;;;;;20.39;48.40;101752.53;7252091;19;153421;-59
2023/04/29 05:48:39;;;;;;;;;;;;;;;20.37;48.23;101745.53;7251283;19;153662;-60
2023/04/29 05:51:08;;;;;;;;;;;;;;;20.37;48.52;101751.13;7253194;19;153443;-59
2023/04/29 05:53:37;;;;;;;;;;;;;;;20.38;48.11;101750.00;7250936;19;153537;-59
2023/04/29 05:56:07;;;;;;;;;;;;;;;20.37;48.60;101757.59;7249921;19;154434;-58
2023/04/29 05:58:36;;;;;;;;;;;;;;;20.38;48.17;101747.22;7249043;19;154180;-59
2023/04/29 06:01:04;;;;;;;;;;;;;;;20.36;48.64;101750.28;7257811;19;153721;-59
2023/04/29 06:03:33;;;;;;;;;;;;;;;20.35;48.28;101753.41;7250809;19;153817;-60
2023/04/29 06:06:01;;;;;;;;;;;;;;;20.34;48.50;101746.94;7250660;19;155643;-60
2023/04/29 06:08:28;;;;;;;;;;;;;;;20.34;48.42;101748.91;7252340;19;153549;-60
2023/04/29 06:10:55;;;;;;;;;;;;;;;20.33;48.40;101733.19;7251344;19;153693;-65
2023/04/29 06:13:23;;;;;;;;;;;;;;;20.32;48.65;101729.53;7250153;19;153317;-60
2023/04/29 06:15:53;;;;;;;;;;;;;;;20.33;48.79;101739.66;7245882;19;153837;-60
2023/04/29 06:18:20;;;;;;;;;;;;;;;20.31;48.52;101741.88;7250202;19;154316;-60
2023/04/29 06:20:47;;;;;;;;;;;;;;;20.32;48.49;101751.16;7257804;19;154517;-60
2023/04/29 06:23:14;;;;;;;;;;;;;;;20.30;49.03;101750.63;7263851;19;153387;-60
2023/04/29 06:25:41;;;;;;;;;;;;;;;20.30;48.58;101750.63;7258135;19;153106;-60
2023/04/29 06:28:09;;;;;;;;;;;;;;;20.30;49.02;101751.47;7256356;19;154289;-59
2023/04/29 06:30:36;;;;;;;;;;;;;;;20.30;48.78;101750.63;7258232;19;152882;-60
2023/04/29 06:33:03;;;;;;;;;;;;;;;20.28;48.82;101755.63;7260106;19;153958;-59
2023/04/29 06:35:30;;;;;;;;;;;;;;;20.28;48.52;101756.47;7254306;19;154842;-59
2023/04/29 06:37:57;;;;;;;;;;;;;;;20.29;48.89;101763.78;7255704;19;155305;-58
2023/04/29 06:40:24;;;;;;;;;;;;;;;20.29;48.89;101763.78;7256463;19;152081;-58
2023/04/29 06:42:51;;;;;;;;;;;;;;;20.29;48.67;101762.94;7264637;19;153799;-58
2023/04/29 06:45:18;;;;;;;;;;;;;;;20.26;49.20;101767.13;7253111;19;152846;-59
2023/04/29 06:47:45;;;;;;;;;;;;;;;20.27;49.07;101768.81;7254403;19;153904;-58
2023/04/29 06:50:15;;;;;;;;;;;;;;;20.27;49.10;101765.16;7258620;19;153913;-58
2023/04/29 06:52:42;;;;;;;;;;;;;;;20.25;48.96;101761.81;7259574;19;153444;-58
2023/04/29 06:55:10;;;;;;;;;;;;;;;20.24;48.78;101775.03;7254468;19;154735;-58
2023/04/29 06:57:37;;;;;;;;;;;;;;;20.25;49.15;101775.88;7257624;19;154529;-58
2023/04/29 07:00:05;;;;;;;;;;;;;;;20.24;48.93;101785.41;7251082;19;152529;-58
2023/04/29 07:02:32;;;;;;;;;;;;;;;20.24;48.93;101794.66;7253880;19;152578;-58
2023/04/29 07:04:59;;;;;;;;;;;;;;;20.23;49.12;101803.34;7265450;19;153809;-58
2023/04/29 07:07:27;;;;;;;;;;;;;;;20.22;49.08;101791.28;7255219;19;154689;-58
2023/04/29 07:09:54;;;;;;;;;;;;;;;20.23;48.81;101789.31;7256196;19;153658;-58
2023/04/29 07:12:21;;;;;;;;;;;;;;;20.22;48.81;101798.88;7259164;19;153681;-58
2023/04/29 07:14:48;;;;;;;;;;;;;;;20.21;49.24;101800.84;7251018;19;153372;-59
2023/04/29 07:17:15;;;;;;;;;;;;;;;20.22;48.86;101801.66;7254973;19;153323;-59
2023/04/29 07:19:42;;;;;;;;;;;;;;;20.21;48.91;101806.47;7255110;19;154740;-58
2023/04/29 07:22:11;;;;;;;;;;;;;;;20.21;49.02;101806.47;7256465;19;153838;-59
2023/04/29 07:24:38;;;;;;;;;;;;;;;20.21;49.03;101812.09;7257706;19;154997;-58
2023/04/29 07:27:06;;;;;;;;;;;;;;;20.20;49.06;101801.13;7263025;19;153349;-58
2023/04/29 07:29:37;;;;;;;;;;;;;;;20.21;49.05;101806.47;7252105;19;153729;-58
2023/04/29 07:32:04;;;;;;;;;;;;;;;20.21;49.16;101814.88;7251194;19;154319;-58
2023/04/29 07:34:31;;;;;;;;;;;;;;;20.20;49.12;101806.75;7257974;19;154162;-58
2023/04/29 07:36:58;;;;;;;;;;;;;;;20.20;49.46;101812.34;7253893;19;153748;-59
2023/04/29 07:39:25;;;;;;;;;;;;;;;20.19;49.57;101813.47;7253988;19;152485;-58
2023/04/29 07:41:53;;;;;;;;;;;;;;;20.20;49.43;101813.19;7252818;19;153718;-58
2023/04/29 07:44:21;;;;;;;;;;;;;;;20.18;49.12;101818.25;7252082;19;152595;-58
2023/04/29 07:46:48;;;;;;;;;;;;;;;20.18;49.11;101821.03;7252414;19;155162;-58
2023/04/29 07:49:15;;;;;;;;;;;;;;;20.18;49.28;101823.84;7262852;19;154669;-58
2023/04/29 07:51:42;;;;;;;;;;;;;;;20.18;49.36;101823.00;7255044;19;151942;-58
2023/04/29 07:54:13;;;;;;;;;;;;;;;20.17;49.15;101830.59;7252708;19;153532;-58
2023/04/29 07:56:40;;;;;;;;;;;;;;;20.17;49.18;101827.78;7255787;19;152441;-58
2023/04/29 07:59:07;;;;;;;;;;;;;;;20.17;49.44;101830.59;7252473;19;154653;-58
2023/04/29 08:01:34;;;;;;;;;;;;;;;20.15;49.22;101830.03;7253552;19;156151;-58
2023/04/29 08:04:01;;;;;;;;;;;;;;;20.15;49.38;101829.19;7258583;19;153386;-58
2023/04/29 08:06:29;;;;;;;;;;;;;;;20.14;49.57;101836.78;7253032;19;153885;-58
2023/04/29 08:08:56;;;;;;;;;;;;;;;20.15;49.48;101838.47;7254453;19;154223;-58
2023/04/29 08:11:26;;;;;;;;;;;;;;;20.17;49.42;101843.81;7260071;19;154032;-59
2023/04/29 08:13:55;;;;;;;;;;;;;;;20.13;49.27;101839.84;7255924;19;154464;-58
2023/04/29 08:16:24;;;;;;;;;;;;;;;20.13;49.28;101840.69;7250673;19;152705;-58
2023/04/29 08:18:52;;;;;;;;;;;;;;;20.16;49.38;101837.34;7253704;19;153985;-58
2023/04/29 08:21:19;;;;;;;;;;;;;;;20.15;49.45;101832.84;7247991;19;154214;-58
2023/04/29 08:23:46;;;;;;;;;;;;;;;20.13;49.57;101837.88;7257109;19;153934;-58
2023/04/29 08:26:13;;;;;;;;;;;;;;;20.15;49.48;101835.66;7252160;19;153652;-58
2023/04/29 08:28:41;;;;;;;;;;;;;;;20.16;49.18;101839.31;7256727;19;152744;-58
2023/04/29 08:31:15;;;;;;;;;;;;;;;20.22;49.09;101835.34;7250793;19;154611;-58
2023/04/29 08:33:42;;;;;;;;;;;;;;;20.28;49.46;101837.88;7266968;19;155142;-58
2023/04/29 08:36:09;;;;;;;;;;;;;;;20.33;49.68;101835.06;7251981;19;152036;-58
2023/04/29 08:38:36;;;;;;;;;;;;;;;20.38;49.28;101839.84;7254869;19;154840;-58
2023/04/29 08:41:06;;;;;;;;;;;;;;;20.42;49.50;101841.78;7255516;19;155186;-58
2023/04/29 08:43:34;;;;;;;;;;;;;;;20.48;49.39;101842.63;7254778;19;152766;-58
2023/04/29 08:46:01;;;;;;;;;;;;;;;20.55;49.08;101848.75;7254646;19;154353;-58
2023/04/29 08:48:31;;;;;;;;;;;;;;;20.60;49.54;101850.69;7252911;19;153545;-58
2023/04/29 08:51:01;;;;;;;;;;;;;;;20.67;49.38;101851.25;7254906;19;154403;-60
2023/04/29 08:53:28;;;;;;;;;;;;;;;20.71;49.18;101858.81;7259344;19;154943;-59
2023/04/29 08:55:57;;;;;;;;;;;;;;;20.80;48.97;101856.22;7251371;19;153777;-58
2023/04/29 08:58:25;;;;;;;;;;;;;;;20.85;49.04;101865.44;7253499;19;153852;-59
2023/04/29 09:00:52;;;;;;;;;;;;;;;20.94;49.06;101867.69;7249932;19;152989;-58
2023/04/29 09:03:30;;;;;;;;;;;;;;;21.00;48.90;101870.16;7255108;19;152383;-58
2023/04/29 09:05:59;;;;;;;;;;;;;;;21.07;48.67;101873.50;7251459;19;153738;-58
2023/04/29 09:08:27;;;;;;;;;;;;;;;21.16;48.34;101870.97;7253292;19;155243;-58
2023/04/29 09:10:55;;;;;;;;;;;;;;;21.23;48.45;101871.47;7255104;19;154323;-59
2023/04/29 09:13:24;;;;;;;;;;;;;;;21.29;47.94;101865.53;7249883;19;153427;-58
2023/04/29 09:15:51;;;;;;;;;;;;;;;21.37;48.04;101871.66;7255138;19;153442;-58
2023/04/29 09:18:27;;;;;;;;;;;;;;;21.44;47.72;101875.81;7250757;19;154588;-58
2023/04/29 09:20:55;;;;;;;;;;;;;;;21.51;47.51;101870.72;7242703;19;154999;-58
2023/04/29 09:23:35;;;;;;;;;;;;;;;21.59;47.38;101867.25;7255650;19;154737;-58
2023/04/29 09:26:02;;;;;;;;;;;;;;;21.66;47.14;101879.03;7255663;19;155160;-58
2023/04/29 09:28:29;;;;;;;;;;;;;;;21.73;47.29;101878.69;7249425;19;155514;-58
2023/04/29 09:31:05;;;;;;;;;;;;;;;21.81;47.03;101877.22;7248638;19;152861;-58
2023/04/29 09:33:48;;;;;;;;;;;;;;;21.89;46.67;101887.84;7252563;19;153492;-60
2023/04/29 09:36:34;;;;;;;;;;;;;;;21.95;46.76;101873.44;7251998;19;153807;-58
2023/04/29 09:39:01;;;;;;;;;;;;;;;22.03;46.35;101880.44;7259947;19;154591;-58
2023/04/29 09:41:28;;;;;;;;;;;;;;;22.09;46.29;101884.88;7254933;19;153291;-59
2023/04/29 09:44:05;;;;;;;;;;;;;;;22.16;45.91;101891.84;7253028;19;153368;-58
2023/04/29 09:46:33;;;;;;;;;;;;;;;22.23;45.98;101879.38;7250045;19;154644;-58
2023/04/29 09:49:00;;;;;;;;;;;;;;;22.29;46.08;101881.84;7251531;19;154639;-59
2023/04/29 09:51:31;;;;;;;;;;;;;;;22.37;45.70;101889.66;7253048;19;152973;-58
2023/04/29 09:54:00;;;;;;;;;;;;;;;22.44;45.49;101886.50;7256139;19;155570;-59
2023/04/29 09:56:29;;;;;;;;;;;;;;;22.51;45.51;101881.31;7257737;19;154230;-58
2023/04/29 09:59:06;;;;;;;;;;;;;;;22.57;45.08;101878.16;7258078;19;153803;-58
2023/04/29 10:01:34;;;;;;;;;;;;;;;22.65;45.39;101881.44;7262445;19;155963;-59
2023/04/29 10:04:02;;;;;;;;;;;;;;;22.71;44.75;101877.47;7260442;19;153760;-59
2023/04/29 10:06:29;;;;;;;;;;;;;;;22.71;44.22;101883.94;7260565;19;154014;-59
2023/04/29 10:08:57;;;;;;;;;;;;;;;22.70;43.77;101878.59;7255162;19;153235;-59
2023/04/29 10:11:25;;;;;;;;;;;;;;;22.73;43.55;101878.00;7257507;19;153403;-59
2023/04/29 10:13:52;;;;;;;;;;;;;;;22.74;43.60;101877.69;7258381;19;154146;-59
2023/04/29 10:16:28;;;;;;;;;;;;;;;22.74;43.49;101882.50;7251274;19;153415;-59
2023/04/29 10:18:58;;;;;;;;;;;;;;;22.75;43.23;101887.84;7258516;19;153116;-59
2023/04/29 10:21:28;;;;;;;;;;;;;;;22.75;42.90;101882.19;7253106;19;154408;-59
2023/04/29 10:23:56;;;;;;;;;;;;;;;22.75;42.87;101884.19;7266612;19;153907;-58
2023/04/29 10:26:26;;;;;;;;;;;;;;;22.76;42.84;101883.03;7253274;19;154232;-59
2023/04/29 10:28:54;;;;;;;;;;;;;;;22.77;43.02;101885.53;7259111;19;153556;-59
2023/04/29 10:31:24;;;;;;;;;;;;;;;22.76;42.78;101883.03;7253379;19;154660;-59
2023/04/29 10:33:54;;;;;;;;;;;;;;;22.77;43.05;101879.06;7259552;19;155114;-60
2023/04/29 10:36:22;;;;;;;;;;;;;;;22.77;42.59;101879.91;7259128;19;155782;-59
2023/04/29 10:38:53;;;;;;;;;;;;;;;22.79;42.59;101886.09;7261622;19;154466;-59
2023/04/29 10:41:25;;;;;;;;;;;;;;;22.79;42.55;101883.28;7257670;19;154727;-59
2023/04/29 10:43:53;;;;;;;;;;;;;;;22.79;42.84;101871.16;7258578;19;154134;-59
2023/04/29 10:46:21;;;;;;;;;;;;;;;22.79;42.27;101874.81;7263080;19;154535;-59
2023/04/29 10:48:51;;;;;;;;;;;;;;;22.79;42.24;101871.16;7258171;19;153775;-59
2023/04/29 10:51:30;;;;;;;;;;;;;;;22.79;42.56;101872.00;7260416;19;153766;-58
2023/04/29 10:53:59;;;;;;;;;;;;;;;22.80;42.18;101872.84;7261447;19;153498;-60
2023/04/29 10:56:36;;;;;;;;;;;;;;;22.82;41.92;101877.03;7256734;19;154757;-61
2023/04/29 10:59:04;;;;;;;;;;;;;;;22.83;42.36;101877.88;7257783;19;153597;-58
2023/04/29 11:01:47;;;;;;;;;;;;;;;22.83;42.04;101875.03;7254676;19;154363;-59
2023/04/29 11:04:17;;;;;;;;;;;;;;;22.83;42.04;101875.88;7253744;19;153858;-59
2023/04/29 11:06:46;;;;;;;;;;;;;;;22.83;41.90;101866.59;7264174;19;154139;-59
2023/04/29 11:09:18;;;;;;;;;;;;;;;22.84;42.07;101876.72;7254082;19;154633;-59
2023/04/29 11:11:45;;;;;;;;;;;;;;;22.84;42.06;101862.66;7223964;19;159117;-59
2023/04/29 11:14:13;;;;;;;;;;;;;;;22.85;42.11;101867.97;7244736;19;154130;-59
2023/04/29 11:16:40;;;;;;;;;;;;;;;;;;7250758;19;155959;-59
2023/04/29 11:19:07;;;;;;;;;;;;;;;;;;7251944;19;157121;-59
2023/04/29 11:21:35;;;;;;;;;;;;;;;22.88;42.52;101870.19;7247704;19;183509;-59
2023/04/29 11:24:03;;;;;;;;;;;;;;;22.89;42.38;101871.88;7252172;19;154730;-59
2023/04/29 11:26:30;;;;;;;;;;;;;;;22.89;42.21;101873.84;7252845;19;152183;-59
2023/04/29 11:28:57;;;;;;;;;;;;;;;22.88;42.00;101875.00;7257530;19;154324;-59
2023/04/29 11:31:25;;;;;;;;;;;;;;;22.89;42.32;101874.69;7251642;19;152500;-59
2023/04/29 11:33:54;;;;;;;;;;;;;;;22.89;42.11;101882.31;7256186;19;154906;-59
2023/04/29 11:36:21;;;;;;;;;;;;;;;22.88;42.19;101875.00;7251079;19;153400;-59
2023/04/29 11:38:48;;;;;;;;;;;;;;;22.87;42.14;101878.94;7254640;19;153247;-59
2023/04/29 11:41:15;;;;;;;;;;;;;;;22.86;42.05;101868.81;7253766;19;154546;-59
2023/04/29 11:43:45;;;;;;;;;;;;;;;22.83;41.89;101867.44;7254463;19;153802;-59
2023/04/29 11:46:13;;;;;;;;;;;;;;;22.83;42.20;101866.59;7246680;19;153786;-59
2023/04/29 11:48:48;;;;;;;;;;;;;;;22.81;42.12;101864.06;7255771;19;154310;-59
2023/04/29 11:51:16;;;;;;;;;;;;;;;22.82;42.31;101865.75;7261555;19;153943;-59
2023/04/29 11:53:43;;;;;;;;;;;;;;;22.85;42.37;101864.31;7258063;19;154705;-59
2023/04/29 11:56:14;;;;;;;;;;;;;;;22.88;41.90;101866.53;7244420;19;153766;-59
2023/04/29 11:58:42;;;;;;;;;;;;;;;22.88;41.86;101855.25;7252996;19;151799;-59
2023/04/29 12:01:09;;;;;;;;;;;;;;;22.91;42.14;101869.56;7251342;19;154168;-59
2023/04/29 12:03:36;;;;;;;;;;;;;;;22.95;41.99;101865.00;7252166;19;153662;-59
2023/04/29 12:06:04;;;;;;;;;;;;;;;22.98;42.45;101872.03;7255532;19;154351;-59
2023/04/29 12:08:33;;;;;;;;;;;;;;;23.04;42.17;101867.97;7253632;19;153972;-58
2023/04/29 12:11:00;;;;;;;;;;;;;;;23.09;42.32;101858.63;7255001;19;154140;-59
2023/04/29 12:13:29;;;;;;;;;;;;;;;23.12;42.05;101869.31;7258790;19;153833;-58
2023/04/29 12:15:58;;;;;;;;;;;;;;;23.15;41.91;101855.44;7245818;19;154118;-58
2023/04/29 12:18:26;;;;;;;;;;;;;;;23.17;41.41;101853.13;7254866;19;154064;-58
2023/04/29 12:20:55;;;;;;;;;;;;;;;23.25;41.35;101860.09;7256523;19;155228;-58
2023/04/29 12:23:27;;;;;;;;;;;;;;;23.28;41.07;101856.66;7254363;19;154040;-58
2023/04/29 12:25:55;;;;;;;;;;;;;;;23.32;41.14;101858.56;7254793;19;153688;-59
2023/04/29 12:28:23;;;;;;;;;;;;;;;23.54;41.42;101852.31;7254181;19;154257;-63
2023/04/29 12:30:52;;;;;;;;;;;;;;;23.58;41.59;101855.34;7248336;19;154028;-63
2023/04/29 12:33:22;;;;;;;;;;;;;;;23.61;40.69;101855.59;7251810;19;152319;-62